sensor_id;sensor_type;location;lat;lon;timestamp;temperature;humidity
76757;DHT22;65696;51.426;6.968;2022-11-30T13:46:48;17.30;45.70
76757;DHT22;65696;51.426;6.968;2022-11-30T13:49:17;17.40;45.70
76757;DHT22;65696;51.426;6.968;2022-11-30T13:51:43;17.40;45.70
76757;DHT22;65696;51.426;6.968;2022-11-30T13:56:53;17.40;45.50
76757;DHT22;65696;51.426;6.968;2022-11-30T13:59:31;17.40;45.70
76757;DHT22;65696;51.426;6.968;2022-11-30T14:04:44;17.50;45.90
76757;DHT22;65696;51.426;6.968;2022-11-30T14:09:55;17.40;45.70
76757;DHT22;65696;51.426;6.968;2022-11-30T14:12:35;17.40;45.50
76757;DHT22;65696;51.426;6.968;2022-11-30T14:15:01;17.40;45.70
76757;DHT22;65696;51.426;6.968;2022-11-30T14:17:27;17.40;45.90
76757;DHT22;65696;51.426;6.968;2022-11-30T14:19:56;17.40;45.90
76757;DHT22;65696;51.426;6.968;2022-11-30T14:22:22;17.40;45.70
76757;DHT22;65696;51.426;6.968;2022-11-30T14:24:49;17.30;45.80
76757;DHT22;65696;51.426;6.968;2022-11-30T14:27:16;17.40;45.70
76757;DHT22;65696;51.426;6.968;2022-11-30T14:29:42;17.40;45.70
76757;DHT22;65696;51.426;6.968;2022-11-30T14:32:09;17.40;45.70
76757;DHT22;65696;51.426;6.968;2022-11-30T14:34:36;17.30;45.80
76757;DHT22;65696;51.426;6.968;2022-11-30T14:37:05;17.30;45.90
76757;DHT22;65696;51.426;6.968;2022-11-30T14:39:37;17.40;45.90
76757;DHT22;65696;51.426;6.968;2022-11-30T14:42:14;17.40;45.70
76757;DHT22;65696;51.426;6.968;2022-11-30T14:44:42;17.40;45.70
76757;DHT22;65696;51.426;6.968;2022-11-30T14:47:11;17.50;45.40
76757;DHT22;65696;51.426;6.968;2022-11-30T14:49:37;17.50;45.30
76757;DHT22;65696;51.426;6.968;2022-11-30T14:52:10;17.40;45.70
76757;DHT22;65696;51.426;6.968;2022-11-30T14:54:39;17.40;45.70
76757;DHT22;65696;51.426;6.968;2022-11-30T14:57:10;17.40;45.70
76757;DHT22;65696;51.426;6.968;2022-11-30T14:59:47;17.40;45.70
76757;DHT22;65696;51.426;6.968;2022-11-30T15:02:17;17.30;45.70
76757;DHT22;65696;51.426;6.968;2022-11-30T15:04:43;17.40;45.50
76757;DHT22;65696;51.426;6.968;2022-11-30T15:07:12;17.40;45.50
76757;DHT22;65696;51.426;6.968;2022-11-30T15:09:39;17.40;45.70
76757;DHT22;65696;51.426;6.968;2022-11-30T15:12:06;17.40;45.40
76757;DHT22;65696;51.426;6.968;2022-11-30T15:14:32;17.40;45.70
76757;DHT22;65696;51.426;6.968;2022-11-30T15:16:57;17.40;45.70
76757;DHT22;65696;51.426;6.968;2022-11-30T15:19:23;17.30;45.80
76757;DHT22;65696;51.426;6.968;2022-11-30T15:21:49;17.30;45.70
76757;DHT22;65696;51.426;6.968;2022-11-30T15:24:17;17.40;45.70
76757;DHT22;65696;51.426;6.968;2022-11-30T15:26:46;17.30;45.70
76757;DHT22;65696;51.426;6.968;2022-11-30T15:29:14;17.30;45.90
76757;DHT22;65696;51.426;6.968;2022-11-30T15:31:41;17.30;45.70
76757;DHT22;65696;51.426;6.968;2022-11-30T15:34:15;17.30;45.70
76757;DHT22;65696;51.426;6.968;2022-11-30T15:36:41;17.40;45.50
76757;DHT22;65696;51.426;6.968;2022-11-30T15:39:07;17.40;45.50
76757;DHT22;65696;51.426;6.968;2022-11-30T15:41:41;17.30;45.70
76757;DHT22;65696;51.426;6.968;2022-11-30T15:44:18;17.30;45.50
76757;DHT22;65696;51.426;6.968;2022-11-30T15:46:52;17.30;45.70
76757;DHT22;65696;51.426;6.968;2022-11-30T15:49:21;17.30;45.80
76757;DHT22;65696;51.426;6.968;2022-11-30T15:51:56;17.40;45.70
76757;DHT22;65696;51.426;6.968;2022-11-30T15:57:03;17.30;45.70
76757;DHT22;65696;51.426;6.968;2022-11-30T15:59:29;17.40;45.50
76757;DHT22;65696;51.426;6.968;2022-11-30T16:01:55;17.30;45.60
76757;DHT22;65696;51.426;6.968;2022-11-30T16:04:21;17.40;45.50
76757;DHT22;65696;51.426;6.968;2022-11-30T16:06:47;17.40;45.60
76757;DHT22;65696;51.426;6.968;2022-11-30T16:09:16;17.30;45.70
76757;DHT22;65696;51.426;6.968;2022-11-30T16:11:42;17.30;45.80
76757;DHT22;65696;51.426;6.968;2022-11-30T16:14:09;17.30;45.80
76757;DHT22;65696;51.426;6.968;2022-11-30T16:16:38;17.30;45.70
76757;DHT22;65696;51.426;6.968;2022-11-30T16:19:03;17.30;45.90
76757;DHT22;65696;51.426;6.968;2022-11-30T16:21:29;17.30;45.70
76757;DHT22;65696;51.426;6.968;2022-11-30T16:23:54;17.30;45.70
76757;DHT22;65696;51.426;6.968;2022-11-30T16:26:20;17.30;45.80
76757;DHT22;65696;51.426;6.968;2022-11-30T16:28:45;17.30;45.70
76757;DHT22;65696;51.426;6.968;2022-11-30T16:31:15;17.20;45.70
76757;DHT22;65696;51.426;6.968;2022-11-30T16:33:41;17.30;45.70
76757;DHT22;65696;51.426;6.968;2022-11-30T16:36:07;17.30;45.40
76757;DHT22;65696;51.426;6.968;2022-11-30T16:38:33;17.30;45.70
76757;DHT22;65696;51.426;6.968;2022-11-30T16:41:08;17.30;45.70
76757;DHT22;65696;51.426;6.968;2022-11-30T16:43:34;17.20;45.60
76757;DHT22;65696;51.426;6.968;2022-11-30T16:46:01;17.20;45.80
76757;DHT22;65696;51.426;6.968;2022-11-30T16:48:28;17.30;45.70
76757;DHT22;65696;51.426;6.968;2022-11-30T16:50:54;17.30;45.70
76757;DHT22;65696;51.426;6.968;2022-11-30T16:53:19;17.20;45.70
76757;DHT22;65696;51.426;6.968;2022-11-30T16:55:45;17.20;45.60
76757;DHT22;65696;51.426;6.968;2022-11-30T16:58:10;17.30;45.60
76757;DHT22;65696;51.426;6.968;2022-11-30T17:00:36;17.30;45.70
76757;DHT22;65696;51.426;6.968;2022-11-30T17:03:03;17.20;45.80
76757;DHT22;65696;51.426;6.968;2022-11-30T17:05:31;17.30;45.70
76757;DHT22;65696;51.426;6.968;2022-11-30T17:07:56;17.30;45.60
76757;DHT22;65696;51.426;6.968;2022-11-30T17:10:22;17.30;45.70
76757;DHT22;65696;51.426;6.968;2022-11-30T17:12:48;17.30;45.70
76757;DHT22;65696;51.426;6.968;2022-11-30T17:15:14;17.30;45.70
76757;DHT22;65696;51.426;6.968;2022-11-30T17:17:40;17.20;45.60
76757;DHT22;65696;51.426;6.968;2022-11-30T17:20:06;17.20;45.60
76757;DHT22;65696;51.426;6.968;2022-11-30T17:22:33;17.20;45.60
76757;DHT22;65696;51.426;6.968;2022-11-30T17:24:58;17.20;45.80
76757;DHT22;65696;51.426;6.968;2022-11-30T17:27:24;17.20;45.60
76757;DHT22;65696;51.426;6.968;2022-11-30T17:29:49;17.30;45.60
76757;DHT22;65696;51.426;6.968;2022-11-30T17:32:15;17.30;45.70
76757;DHT22;65696;51.426;6.968;2022-11-30T17:34:40;17.30;45.80
76757;DHT22;65696;51.426;6.968;2022-11-30T17:37:05;17.20;45.60
76757;DHT22;65696;51.426;6.968;2022-11-30T17:39:32;17.20;45.70
76757;DHT22;65696;51.426;6.968;2022-11-30T17:41:58;17.30;45.70
76757;DHT22;65696;51.426;6.968;2022-11-30T17:44:23;17.30;45.60
76757;DHT22;65696;51.426;6.968;2022-11-30T17:46:49;17.30;45.70
76757;DHT22;65696;51.426;6.968;2022-11-30T17:49:14;17.20;45.60
76757;DHT22;65696;51.426;6.968;2022-11-30T17:51:40;17.20;45.70
76757;DHT22;65696;51.426;6.968;2022-11-30T17:54:05;17.20;45.70
76757;DHT22;65696;51.426;6.968;2022-11-30T17:56:32;17.20;45.50
76757;DHT22;65696;51.426;6.968;2022-11-30T17:58:58;17.20;45.60
76757;DHT22;65696;51.426;6.968;2022-11-30T18:01:24;17.20;45.70
76757;DHT22;65696;51.426;6.968;2022-11-30T18:03:49;17.20;45.70
76757;DHT22;65696;51.426;6.968;2022-11-30T18:06:15;17.20;45.60
76757;DHT22;65696;51.426;6.968;2022-11-30T18:08:41;17.30;45.70
76757;DHT22;65696;51.426;6.968;2022-11-30T18:11:07;17.20;46.20
76757;DHT22;65696;51.426;6.968;2022-11-30T18:13:34;17.20;45.10
76757;DHT22;65696;51.426;6.968;2022-11-30T18:16:04;17.30;45.30
76757;DHT22;65696;51.426;6.968;2022-11-30T18:18:30;17.30;45.50
76757;DHT22;65696;51.426;6.968;2022-11-30T18:21:01;17.20;45.60
76757;DHT22;65696;51.426;6.968;2022-11-30T18:23:26;17.30;45.50
76757;DHT22;65696;51.426;6.968;2022-11-30T18:25:51;17.20;45.60
76757;DHT22;65696;51.426;6.968;2022-11-30T18:28:17;17.30;45.50
76757;DHT22;65696;51.426;6.968;2022-11-30T18:30:44;17.30;45.50
76757;DHT22;65696;51.426;6.968;2022-11-30T18:33:09;17.20;45.60
76757;DHT22;65696;51.426;6.968;2022-11-30T18:35:35;17.20;45.60
76757;DHT22;65696;51.426;6.968;2022-11-30T18:38:00;17.20;45.50
76757;DHT22;65696;51.426;6.968;2022-11-30T18:40:25;17.10;45.50
76757;DHT22;65696;51.426;6.968;2022-11-30T18:42:51;17.10;45.60
76757;DHT22;65696;51.426;6.968;2022-11-30T18:45:16;17.30;44.70
76757;DHT22;65696;51.426;6.968;2022-11-30T18:47:43;17.20;45.00
76757;DHT22;65696;51.426;6.968;2022-11-30T18:50:09;17.20;45.20
76757;DHT22;65696;51.426;6.968;2022-11-30T18:52:34;17.20;44.90
76757;DHT22;65696;51.426;6.968;2022-11-30T18:55:00;17.20;44.90
76757;DHT22;65696;51.426;6.968;2022-11-30T18:57:25;17.10;45.10
76757;DHT22;65696;51.426;6.968;2022-11-30T18:59:51;17.20;45.10
76757;DHT22;65696;51.426;6.968;2022-11-30T19:02:16;17.20;45.10
76757;DHT22;65696;51.426;6.968;2022-11-30T19:04:43;17.10;45.00
76757;DHT22;65696;51.426;6.968;2022-11-30T19:07:08;17.20;45.30
76757;DHT22;65696;51.426;6.968;2022-11-30T19:09:34;17.10;45.20
76757;DHT22;65696;51.426;6.968;2022-11-30T19:11:59;17.10;45.40
76757;DHT22;65696;51.426;6.968;2022-11-30T19:14:25;17.20;45.50
76757;DHT22;65696;51.426;6.968;2022-11-30T19:16:50;17.20;45.40
76757;DHT22;65696;51.426;6.968;2022-11-30T19:19:16;17.10;45.30
76757;DHT22;65696;51.426;6.968;2022-11-30T19:21:43;17.20;45.30
76757;DHT22;65696;51.426;6.968;2022-11-30T19:24:09;17.20;45.30
76757;DHT22;65696;51.426;6.968;2022-11-30T19:26:34;17.10;45.50
76757;DHT22;65696;51.426;6.968;2022-11-30T19:29:00;17.10;45.60
76757;DHT22;65696;51.426;6.968;2022-11-30T19:31:25;17.20;45.60
76757;DHT22;65696;51.426;6.968;2022-11-30T19:33:51;17.10;45.00
76757;DHT22;65696;51.426;6.968;2022-11-30T19:36:19;17.10;45.60
76757;DHT22;65696;51.426;6.968;2022-11-30T19:38:46;17.10;45.60
76757;DHT22;65696;51.426;6.968;2022-11-30T19:41:12;17.10;45.60
76757;DHT22;65696;51.426;6.968;2022-11-30T19:43:38;17.10;45.60
76757;DHT22;65696;51.426;6.968;2022-11-30T19:46:04;17.10;45.60
76757;DHT22;65696;51.426;6.968;2022-11-30T19:48:29;17.00;45.50
76757;DHT22;65696;51.426;6.968;2022-11-30T19:50:55;17.00;45.60
76757;DHT22;65696;51.426;6.968;2022-11-30T19:53:20;17.20;45.60
76757;DHT22;65696;51.426;6.968;2022-11-30T19:55:47;17.20;45.60
76757;DHT22;65696;51.426;6.968;2022-11-30T19:58:13;17.20;45.20
76757;DHT22;65696;51.426;6.968;2022-11-30T20:00:38;17.20;45.10
76757;DHT22;65696;51.426;6.968;2022-11-30T20:03:04;17.20;45.60
76757;DHT22;65696;51.426;6.968;2022-11-30T20:05:29;17.10;45.60
76757;DHT22;65696;51.426;6.968;2022-11-30T20:07:54;17.30;45.30
76757;DHT22;65696;51.426;6.968;2022-11-30T20:10:20;17.20;45.30
76757;DHT22;65696;51.426;6.968;2022-11-30T20:12:47;17.20;45.10
76757;DHT22;65696;51.426;6.968;2022-11-30T20:15:12;17.20;45.30
76757;DHT22;65696;51.426;6.968;2022-11-30T20:17:38;17.20;45.40
76757;DHT22;65696;51.426;6.968;2022-11-30T20:20:03;17.10;45.30
76757;DHT22;65696;51.426;6.968;2022-11-30T20:22:29;17.20;45.20
76757;DHT22;65696;51.426;6.968;2022-11-30T20:24:55;17.10;45.30
76757;DHT22;65696;51.426;6.968;2022-11-30T20:27:20;17.20;45.00
76757;DHT22;65696;51.426;6.968;2022-11-30T20:29:48;17.20;45.60
76757;DHT22;65696;51.426;6.968;2022-11-30T20:32:14;17.00;45.20
76757;DHT22;65696;51.426;6.968;2022-11-30T20:34:39;17.10;45.30
76757;DHT22;65696;51.426;6.968;2022-11-30T20:37:05;17.00;45.50
76757;DHT22;65696;51.426;6.968;2022-11-30T20:39:30;17.00;45.50
76757;DHT22;65696;51.426;6.968;2022-11-30T20:41:56;17.00;45.30
76757;DHT22;65696;51.426;6.968;2022-11-30T20:44:21;17.00;45.50
76757;DHT22;65696;51.426;6.968;2022-11-30T20:46:48;17.10;45.20
76757;DHT22;65696;51.426;6.968;2022-11-30T20:49:14;17.00;45.00
76757;DHT22;65696;51.426;6.968;2022-11-30T20:51:40;17.10;45.00
76757;DHT22;65696;51.426;6.968;2022-11-30T20:54:05;17.10;45.30
76757;DHT22;65696;51.426;6.968;2022-11-30T20:56:31;17.00;45.20
76757;DHT22;65696;51.426;6.968;2022-11-30T20:58:59;17.10;45.20
76757;DHT22;65696;51.426;6.968;2022-11-30T21:01:24;17.10;44.90
76757;DHT22;65696;51.426;6.968;2022-11-30T21:03:51;17.00;45.20
76757;DHT22;65696;51.426;6.968;2022-11-30T21:06:17;16.90;45.50
76757;DHT22;65696;51.426;6.968;2022-11-30T21:08:42;17.00;45.40
76757;DHT22;65696;51.426;6.968;2022-11-30T21:11:08;17.00;45.50
76757;DHT22;65696;51.426;6.968;2022-11-30T21:13:34;17.00;45.50
76757;DHT22;65696;51.426;6.968;2022-11-30T21:15:59;17.00;45.20
76757;DHT22;65696;51.426;6.968;2022-11-30T21:18:25;17.00;45.00
76757;DHT22;65696;51.426;6.968;2022-11-30T21:20:52;17.00;45.00
76757;DHT22;65696;51.426;6.968;2022-11-30T21:23:24;16.90;45.20
76757;DHT22;65696;51.426;6.968;2022-11-30T21:25:50;16.90;45.10
76757;DHT22;65696;51.426;6.968;2022-11-30T21:28:15;16.90;45.20
76757;DHT22;65696;51.426;6.968;2022-11-30T21:30:40;16.90;45.00
76757;DHT22;65696;51.426;6.968;2022-11-30T21:33:06;17.00;45.10
76757;DHT22;65696;51.426;6.968;2022-11-30T21:35:31;17.00;44.70
76757;DHT22;65696;51.426;6.968;2022-11-30T21:37:58;17.00;44.70
76757;DHT22;65696;51.426;6.968;2022-11-30T21:40:24;17.00;44.70
76757;DHT22;65696;51.426;6.968;2022-11-30T21:42:49;16.90;45.20
76757;DHT22;65696;51.426;6.968;2022-11-30T21:45:15;16.90;45.00
76757;DHT22;65696;51.426;6.968;2022-11-30T21:47:40;17.10;44.60
76757;DHT22;65696;51.426;6.968;2022-11-30T21:50:06;17.10;44.90
76757;DHT22;65696;51.426;6.968;2022-11-30T21:52:32;17.00;44.60
76757;DHT22;65696;51.426;6.968;2022-11-30T21:54:58;16.90;45.10
76757;DHT22;65696;51.426;6.968;2022-11-30T21:57:24;16.90;44.80
76757;DHT22;65696;51.426;6.968;2022-11-30T21:59:49;17.00;44.90
76757;DHT22;65696;51.426;6.968;2022-11-30T22:02:15;16.90;45.10
76757;DHT22;65696;51.426;6.968;2022-11-30T22:04:40;16.90;45.30
76757;DHT22;65696;51.426;6.968;2022-11-30T22:07:06;16.90;45.20
76757;DHT22;65696;51.426;6.968;2022-11-30T22:09:31;16.90;45.30
76757;DHT22;65696;51.426;6.968;2022-11-30T22:11:58;16.90;45.30
76757;DHT22;65696;51.426;6.968;2022-11-30T22:14:24;16.90;45.20
76757;DHT22;65696;51.426;6.968;2022-11-30T22:16:49;16.90;45.40
76757;DHT22;65696;51.426;6.968;2022-11-30T22:19:15;16.90;45.30
76757;DHT22;65696;51.426;6.968;2022-11-30T22:21:41;16.90;45.10
76757;DHT22;65696;51.426;6.968;2022-11-30T22:24:08;16.90;45.30
76757;DHT22;65696;51.426;6.968;2022-11-30T22:26:35;17.00;45.40
76757;DHT22;65696;51.426;6.968;2022-11-30T22:29:02;17.00;45.20
76757;DHT22;65696;51.426;6.968;2022-11-30T22:31:29;17.00;45.00
76757;DHT22;65696;51.426;6.968;2022-11-30T22:33:55;17.00;45.00
76757;DHT22;65696;51.426;6.968;2022-11-30T22:36:23;17.10;45.00
76757;DHT22;65696;51.426;6.968;2022-11-30T22:38:52;17.00;44.80
76757;DHT22;65696;51.426;6.968;2022-11-30T22:41:17;16.90;45.20
76757;DHT22;65696;51.426;6.968;2022-11-30T22:43:43;16.90;45.20
76757;DHT22;65696;51.426;6.968;2022-11-30T22:46:11;17.10;44.90
76757;DHT22;65696;51.426;6.968;2022-11-30T22:48:37;17.00;44.70
76757;DHT22;65696;51.426;6.968;2022-11-30T22:51:03;17.00;44.90
76757;DHT22;65696;51.426;6.968;2022-11-30T22:53:29;17.00;44.60
76757;DHT22;65696;51.426;6.968;2022-11-30T22:55:58;17.00;45.00
76757;DHT22;65696;51.426;6.968;2022-11-30T22:58:24;16.90;45.20
76757;DHT22;65696;51.426;6.968;2022-11-30T23:00:49;17.00;45.10
76757;DHT22;65696;51.426;6.968;2022-11-30T23:03:16;17.10;44.70
76757;DHT22;65696;51.426;6.968;2022-11-30T23:05:42;17.00;44.70
76757;DHT22;65696;51.426;6.968;2022-11-30T23:08:07;17.00;44.50
76757;DHT22;65696;51.426;6.968;2022-11-30T23:10:32;17.10;44.60
76757;DHT22;65696;51.426;6.968;2022-11-30T23:12:58;16.90;44.10
76757;DHT22;65696;51.426;6.968;2022-11-30T23:15:23;17.00;44.10
76757;DHT22;65696;51.426;6.968;2022-11-30T23:17:49;17.00;44.50
76757;DHT22;65696;51.426;6.968;2022-11-30T23:20:16;17.10;43.90
76757;DHT22;65696;51.426;6.968;2022-11-30T23:22:41;17.00;44.70
76757;DHT22;65696;51.426;6.968;2022-11-30T23:25:07;17.00;44.50
76757;DHT22;65696;51.426;6.968;2022-11-30T23:27:32;16.90;44.60
76757;DHT22;65696;51.426;6.968;2022-11-30T23:29:58;16.90;44.50
76757;DHT22;65696;51.426;6.968;2022-11-30T23:32:23;16.90;44.30
76757;DHT22;65696;51.426;6.968;2022-11-30T23:34:49;17.00;44.30
76757;DHT22;65696;51.426;6.968;2022-11-30T23:37:16;17.00;44.50
76757;DHT22;65696;51.426;6.968;2022-11-30T23:39:41;16.90;44.40
76757;DHT22;65696;51.426;6.968;2022-11-30T23:42:06;17.00;44.30
76757;DHT22;65696;51.426;6.968;2022-11-30T23:44:32;16.90;44.30
76757;DHT22;65696;51.426;6.968;2022-11-30T23:46:57;16.80;44.20
76757;DHT22;65696;51.426;6.968;2022-11-30T23:49:23;16.80;44.50
76757;DHT22;65696;51.426;6.968;2022-11-30T23:51:48;16.80;44.30
76757;DHT22;65696;51.426;6.968;2022-11-30T23:54:15;16.80;44.50
76757;DHT22;65696;51.426;6.968;2022-11-30T23:56:40;16.90;44.50
76757;DHT22;65696;51.426;6.968;2022-11-30T23:59:06;16.90;44.40
